Time;durP1;ratioP1;P1;durP2;ratioP2;P2;SDS_P1;SDS_P2;PMS_P1;PMS_P2;Temp;Humidity;BMP_temperature;BMP_pressure;BME280_temperature;BME280_humidity;BME280_pressure;Samples;Min_cycle;Max_cycle;Signal;HPM_P1;HPM_P2
2023/10/15 00:01:39;;;;;;;10.20;5.40;;;;;;;14.71;100.00;100345.00;107452;1245;69620;-79
2023/10/15 00:04:08;;;;;;;10.90;5.00;;;;;;;14.62;100.00;100346.36;107405;1255;63150;-78
2023/10/15 00:06:37;;;;;;;12.60;5.20;;;;;;;14.54;100.00;100339.06;107294;1248;62695;-76
2023/10/15 00:09:07;;;;;;;11.80;5.90;;;;;;;14.48;100.00;100334.77;107439;1245;61374;-83
2023/10/15 00:11:36;;;;;;;8.40;5.50;;;;;;;14.41;100.00;100333.29;109527;1241;62084;-80
2023/10/15 00:14:05;;;;;;;12.70;5.60;;;;;;;14.32;100.00;100333.59;109347;1243;61549;-85
2023/10/15 00:16:34;;;;;;;11.70;5.70;;;;;;;14.22;100.00;100334.02;109341;1243;59050;-82
2023/10/15 00:19:09;;;;;;;10.10;5.20;;;;;;;14.14;100.00;100334.79;109448;1244;62294;-78
2023/10/15 00:21:38;;;;;;;13.30;5.40;;;;;;;14.05;100.00;100334.38;109330;1246;57774;-77
2023/10/15 00:24:10;;;;;;;10.60;5.10;;;;;;;13.96;100.00;100334.30;109326;1244;57702;-82
2023/10/15 00:26:39;;;;;;;11.70;5.50;;;;;;;13.88;100.00;100333.55;109360;1247;61908;-80
2023/10/15 00:29:08;;;;;;;10.20;5.20;;;;;;;13.81;100.00;100329.08;109390;1243;72168;-82
2023/10/15 00:31:38;;;;;;;7.30;5.60;;;;;;;13.76;100.00;100325.00;109537;1241;70548;-81
2023/10/15 00:34:12;;;;;;;9.70;4.90;;;;;;;13.71;100.00;100324.02;109266;1243;63701;-82
2023/10/15 00:36:41;;;;;;;10.70;5.80;;;;;;;13.67;100.00;100328.58;109421;1242;61952;-80
2023/10/15 00:39:19;;;;;;;8.60;5.30;;;;;;;13.63;100.00;100325.18;109418;1244;61669;-80
2023/10/15 00:41:48;;;;;;;9.10;6.10;;;;;;;13.58;100.00;100323.50;109516;1244;61944;-81
2023/10/15 00:44:17;;;;;;;13.40;6.10;;;;;;;13.53;100.00;100321.68;109572;1244;70865;-79
2023/10/15 00:46:54;;;;;;;9.00;5.40;;;;;;;13.46;100.00;100322.16;109607;1243;70991;-81
2023/10/15 00:49:27;;;;;;;10.90;5.80;;;;;;;13.40;100.00;100322.83;109617;1243;74206;-81
2023/10/15 00:51:57;;;;;;;9.40;5.90;;;;;;;13.35;100.00;100320.34;109400;1247;57658;-79
2023/10/15 00:54:27;;;;;;;9.20;5.40;;;;;;;13.30;100.00;100323.61;109482;1243;58859;-82
2023/10/15 00:56:56;;;;;;;10.20;6.30;;;;;;;13.22;100.00;100324.73;109423;1245;72653;-77
2023/10/15 00:59:43;;;;;;;9.70;5.70;;;;;;;13.17;100.00;100319.64;109426;1244;72584;-81
2023/10/15 01:02:12;;;;;;;15.50;6.00;;;;;;;13.13;100.00;100323.88;109486;1241;59589;-80
2023/10/15 01:04:42;;;;;;;10.80;5.10;;;;;;;13.08;100.00;100330.05;109673;1241;63211;-79
2023/10/15 01:07:32;;;;;;;8.50;5.10;;;;;;;13.03;100.00;100329.28;109500;1244;57678;-79
2023/10/15 01:10:01;;;;;;;8.60;5.50;;;;;;;12.97;100.00;100321.90;109606;1241;57255;-80
2023/10/15 01:12:32;;;;;;;8.30;5.50;;;;;;;12.93;100.00;100318.11;109582;1241;62115;-82
2023/10/15 01:15:02;;;;;;;8.20;5.70;;;;;;;12.89;100.00;100315.35;109649;1241;61567;-79
2023/10/15 01:17:37;;;;;;;14.50;5.80;;;;;;;12.84;100.00;100309.77;109720;1241;59776;-80
2023/10/15 01:20:09;;;;;;;8.50;5.50;;;;;;;12.82;100.00;100309.33;109738;1241;62571;-80
2023/10/15 01:22:39;;;;;;;10.90;6.00;;;;;;;12.78;100.00;100308.13;109541;1245;57561;-80
2023/10/15 01:25:24;;;;;;;8.20;5.50;;;;;;;12.77;100.00;100308.04;109723;1241;57743;-80
2023/10/15 01:27:58;;;;;;;8.50;5.60;;;;;;;12.74;100.00;100307.89;109616;1244;72274;-80
2023/10/15 01:30:30;;;;;;;9.70;5.50;;;;;;;12.74;100.00;100307.66;109691;1241;61455;-80
2023/10/15 01:33:05;;;;;;;10.50;5.70;;;;;;;12.77;100.00;100305.58;109614;1241;70253;-77
2023/10/15 01:35:38;;;;;;;12.30;5.90;;;;;;;12.78;100.00;100305.67;109597;1241;74080;-81
2023/10/15 01:38:20;;;;;;;12.10;6.00;;;;;;;12.76;100.00;100306.16;109663;1241;63458;-80
2023/10/15 01:40:56;;;;;;;7.40;5.00;;;;;;;12.76;100.00;100306.70;109769;1241;61332;-81
2023/10/15 01:43:25;;;;;;;11.10;5.00;;;;;;;12.76;100.00;100309.66;109618;1241;73159;-81
2023/10/15 01:45:57;;;;;;;14.40;5.30;;;;;;;12.77;100.00;100314.48;109639;1241;71857;-80
2023/10/15 01:48:30;;;;;;;9.40;5.10;;;;;;;12.77;100.00;100310.45;109650;1241;59741;-80
2023/10/15 01:51:06;;;;;;;9.60;5.10;;;;;;;12.79;100.00;100308.38;109632;1241;63310;-78
2023/10/15 01:53:39;;;;;;;9.50;5.30;;;;;;;12.79;100.00;100308.67;109656;1244;57167;-81
2023/10/15 01:56:16;;;;;;;8.90;5.20;;;;;;;12.81;100.00;100313.17;109633;1241;61011;-80
2023/10/15 01:58:45;;;;;;;14.50;5.60;;;;;;;12.83;100.00;100315.67;109730;1241;73128;-81
2023/10/15 02:01:31;;;;;;;8.40;5.50;;;;;;;12.85;100.00;100313.54;109637;1241;60589;-80
2023/10/15 02:04:01;;;;;;;6.20;5.00;;;;;;;12.86;100.00;100313.66;109497;1241;69665;-80
2023/10/15 02:06:35;;;;;;;8.20;5.50;;;;;;;12.83;100.00;100311.26;109654;1241;72394;-81
2023/10/15 02:09:08;;;;;;;9.60;5.30;;;;;;;12.81;100.00;100307.49;109679;1245;57749;-80
2023/10/15 02:11:43;;;;;;;9.80;5.70;;;;;;;12.78;100.00;100308.65;109720;1241;60990;-81
2023/10/15 02:14:27;;;;;;;8.00;5.50;;;;;;;12.80;100.00;100304.95;109607;1242;63310;-81
2023/10/15 02:16:59;;;;;;;8.60;5.10;;;;;;;12.82;100.00;100300.00;109635;1245;61408;-80
2023/10/15 02:19:34;;;;;;;8.40;5.30;;;;;;;12.81;100.00;100303.58;109611;1241;71091;-81
2023/10/15 02:22:12;;;;;;;11.70;5.60;;;;;;;12.80;100.00;100299.39;109479;1241;74109;-80
2023/10/15 02:24:48;;;;;;;7.30;5.40;;;;;;;12.77;100.00;100293.50;109489;1245;63457;-80
2023/10/15 02:27:30;;;;;;;8.50;5.70;;;;;;;12.74;100.00;100292.49;109615;1241;57530;-81
2023/10/15 02:29:58;;;;;;;7.70;5.00;;;;;;;12.73;100.00;100292.77;109514;1241;73493;-81
2023/10/15 02:35:02;;;;;;;7.40;5.30;;;;;;;12.70;100.00;100297.61;109493;1241;59385;-81
2023/10/15 02:37:31;;;;;;;10.00;5.30;;;;;;;12.69;100.00;100300.95;109610;1241;63099;-81
2023/10/15 02:40:16;;;;;;;9.30;5.60;;;;;;;12.66;100.00;100301.23;109657;1245;57184;-81
2023/10/15 02:42:52;;;;;;;7.80;5.30;;;;;;;12.66;100.00;100300.18;109598;1241;60124;-81
2023/10/15 02:45:23;;;;;;;9.40;6.00;;;;;;;12.67;100.00;100296.46;109597;1241;62438;-80
2023/10/15 02:47:55;;;;;;;10.50;5.80;;;;;;;12.67;100.00;100293.80;109610;1242;63372;-81
2023/10/15 02:50:26;;;;;;;11.30;5.40;;;;;;;12.68;100.00;100294.64;109661;1241;70015;-80
2023/10/15 02:52:56;;;;;;;11.10;6.00;;;;;;;12.65;100.00;100293.45;109583;1241;62621;-81
2023/10/15 02:55:35;;;;;;;8.60;6.00;;;;;;;12.65;100.00;100293.11;109666;1244;57508;-82
2023/10/15 02:58:05;;;;;;;8.80;5.80;;;;;;;12.63;100.00;100293.63;109640;1245;57315;-80
2023/10/15 03:00:35;;;;;;;8.50;5.60;;;;;;;12.60;100.00;100290.65;109602;1241;62736;-80
2023/10/15 03:03:08;;;;;;;7.70;5.30;;;;;;;12.52;100.00;100288.83;109683;1241;61436;-79
2023/10/15 03:05:42;;;;;;;7.10;5.20;;;;;;;12.46;100.00;100287.79;109488;1241;69932;-81
2023/10/15 03:08:20;;;;;;;9.60;6.50;;;;;;;12.39;100.00;100287.33;109598;1244;73812;-80
2023/10/15 03:10:56;;;;;;;9.10;5.60;;;;;;;12.35;100.00;100288.25;109632;1245;57163;-81
2023/10/15 03:13:26;;;;;;;8.80;5.40;;;;;;;12.31;100.00;100291.08;109656;1241;57415;-80
2023/10/15 03:15:57;;;;;;;11.70;5.90;;;;;;;12.25;100.00;100292.45;109550;1241;62733;-80
2023/10/15 03:18:28;;;;;;;10.50;4.70;;;;;;;12.17;100.00;100288.86;109713;1241;72153;-81
2023/10/15 03:21:44;;;;;;;;;;;;;;;;;;;;;
2023/10/15 03:24:08;;;;;;;11.40;5.10;;;;;;;12.03;100.00;100293.63;109629;1244;74171;-80
2023/10/15 03:26:37;;;;;;;7.70;5.30;;;;;;;11.93;100.00;100283.13;109651;1245;62995;-79
2023/10/15 03:29:13;;;;;;;10.00;5.90;;;;;;;11.90;100.00;100284.77;109719;1243;61056;-79
2023/10/15 03:31:48;;;;;;;11.00;6.30;;;;;;;11.89;100.00;100282.55;109797;1243;63289;-80
2023/10/15 03:34:21;;;;;;;9.20;5.30;;;;;;;11.87;100.00;100280.14;109843;1241;71180;-80
2023/10/15 03:36:57;;;;;;;7.80;5.10;;;;;;;11.82;100.00;100279.66;109924;1241;70689;-80
2023/10/15 03:42:09;;;;;;;11.20;5.80;;;;;;;11.74;100.00;100278.60;109718;1244;62153;-81
2023/10/15 03:44:44;;;;;;;9.10;6.60;;;;;;;11.76;100.00;100275.27;109597;1241;61006;-78
2023/10/15 03:47:16;;;;;;;13.30;6.30;;;;;;;11.75;100.00;100276.95;109351;1241;73904;-79
2023/10/15 03:49:46;;;;;;;12.60;5.40;;;;;;;11.75;100.00;100273.83;109570;1244;61061;-81
2023/10/15 03:52:20;;;;;;;9.50;5.60;;;;;;;11.70;100.00;100271.21;109498;1241;70383;-81
2023/10/15 03:54:52;;;;;;;11.80;5.60;;;;;;;11.66;100.00;100270.85;109582;1241;71484;-82
2023/10/15 03:57:34;;;;;;;7.50;5.00;;;;;;;11.61;100.00;100272.31;109482;1247;57603;-82
2023/10/15 04:00:17;;;;;;;8.40;5.30;;;;;;;11.56;100.00;100269.44;109606;1245;57385;-81
2023/10/15 04:03:22;;;;;;;9.60;5.60;;;;;;;11.53;100.00;100268.48;109597;1241;73447;-80
2023/10/15 04:06:01;;;;;;;8.70;5.10;;;;;;;11.52;100.00;100267.52;109616;1241;72406;-80
2023/10/15 04:08:32;;;;;;;8.00;5.20;;;;;;;11.48;100.00;100268.55;109518;1241;70037;-81
2023/10/15 04:11:02;;;;;;;9.70;5.70;;;;;;;11.43;100.00;100269.98;109681;1244;62772;-81
2023/10/15 04:13:30;;;;;;;9.80;5.90;;;;;;;11.38;100.00;100270.61;109683;1244;62687;-80
2023/10/15 04:15:59;;;;;;;10.60;5.00;;;;;;;11.34;100.00;100275.96;109722;1241;60541;-80
2023/10/15 04:18:29;;;;;;;12.20;6.30;;;;;;;11.30;100.00;100274.95;109704;1244;62545;-81
2023/10/15 04:20:58;;;;;;;10.00;6.20;;;;;;;11.28;100.00;100272.84;109650;1241;61163;-81
2023/10/15 04:23:30;;;;;;;11.40;5.70;;;;;;;11.24;100.00;100270.84;109735;1241;61605;-80
2023/10/15 04:26:07;;;;;;;9.60;6.10;;;;;;;11.22;100.00;100269.33;109759;1244;63726;-80
2023/10/15 04:28:36;;;;;;;11.20;6.20;;;;;;;11.19;100.00;100268.53;109675;1244;57725;-80
2023/10/15 04:31:22;;;;;;;12.20;7.10;;;;;;;11.16;100.00;100271.70;109714;1241;59930;-80
2023/10/15 04:33:52;;;;;;;13.00;6.70;;;;;;;11.15;100.00;100271.27;109633;1241;73345;-81
2023/10/15 04:36:22;;;;;;;18.20;6.10;;;;;;;11.14;100.00;100264.20;109540;1241;72340;-80
2023/10/15 04:39:08;;;;;;;8.30;6.00;;;;;;;11.11;100.00;100262.34;109730;1241;71007;-80
2023/10/15 04:41:37;;;;;;;14.90;6.50;;;;;;;11.10;100.00;100262.08;109696;1244;62705;-79
2023/10/15 04:44:20;;;;;;;13.70;6.60;;;;;;;11.09;100.00;100264.80;109696;1243;62697;-80
2023/10/15 04:46:52;;;;;;;13.30;7.80;;;;;;;11.08;100.00;100266.24;109702;1241;61844;-82
2023/10/15 04:49:23;;;;;;;16.50;7.40;;;;;;;11.09;100.00;100264.98;109695;1245;63534;-79
2023/10/15 04:51:53;;;;;;;22.70;7.60;;;;;;;11.10;100.00;100273.05;109713;1241;72362;-81
2023/10/15 04:54:23;;;;;;;11.90;7.00;;;;;;;11.12;100.00;100271.86;109702;1241;61220;-82
2023/10/15 04:56:54;;;;;;;12.10;7.50;;;;;;;11.14;100.00;100271.00;109591;1241;62277;-81
2023/10/15 04:59:23;;;;;;;16.80;7.50;;;;;;;11.17;100.00;100277.90;109663;1245;57685;-82
2023/10/15 05:01:52;;;;;;;11.80;7.50;;;;;;;11.22;100.00;100276.64;109692;1241;59958;-80
2023/10/15 05:04:21;;;;;;;11.80;8.10;;;;;;;11.27;100.00;100279.36;109627;1244;62996;-82
2023/10/15 05:06:50;;;;;;;11.00;6.60;;;;;;;11.34;100.00;100279.58;109580;1241;71288;-81
2023/10/15 05:09:21;;;;;;;15.50;7.40;;;;;;;11.45;100.00;100282.45;109561;1242;70136;-81
2023/10/15 05:11:50;;;;;;;13.10;6.70;;;;;;;11.54;100.00;100283.74;109471;1245;63105;-82
2023/10/15 05:14:19;;;;;;;14.20;6.90;;;;;;;11.63;100.00;100285.23;109476;1245;57408;-81
2023/10/15 05:16:48;;;;;;;13.00;6.90;;;;;;;11.75;100.00;100286.31;109485;1245;57223;-81
2023/10/15 05:19:17;;;;;;;12.30;7.40;;;;;;;11.88;100.00;100283.14;109605;1244;61975;-80
2023/10/15 05:21:46;;;;;;;15.20;7.70;;;;;;;12.03;100.00;100285.55;109560;1241;69856;-81
2023/10/15 05:24:21;;;;;;;12.70;6.90;;;;;;;12.16;100.00;100286.40;109591;1245;59651;-82
2023/10/15 05:26:49;;;;;;;12.10;8.20;;;;;;;12.31;100.00;100289.48;109479;1241;73684;-81
2023/10/15 05:29:18;;;;;;;9.80;7.10;;;;;;;12.42;100.00;100287.97;109477;1245;57268;-80
2023/10/15 05:31:47;;;;;;;11.70;7.40;;;;;;;12.57;100.00;100288.29;109688;1241;61020;-82
2023/10/15 05:34:17;;;;;;;13.30;7.60;;;;;;;12.70;100.00;100288.63;109685;1241;72033;-79
2023/10/15 05:36:48;;;;;;;12.40;7.00;;;;;;;12.86;100.00;100286.04;109699;1242;71945;-81
2023/10/15 05:39:18;;;;;;;9.00;7.30;;;;;;;13.05;100.00;100289.21;109700;1241;70737;-80
2023/10/15 05:41:47;;;;;;;13.40;7.20;;;;;;;13.17;100.00;100289.08;109652;1245;74339;-82
2023/10/15 05:44:18;;;;;;;11.80;7.00;;;;;;;13.30;100.00;100292.42;109533;1245;63104;-81
2023/10/15 05:46:46;;;;;;;11.80;7.20;;;;;;;13.42;100.00;100289.76;109556;1245;60532;-81
2023/10/15 05:49:15;;;;;;;9.90;6.80;;;;;;;13.54;100.00;100289.42;109457;1245;63438;-82
2023/10/15 05:51:44;;;;;;;12.40;7.10;;;;;;;13.65;100.00;100289.05;109445;1244;62044;-83
2023/10/15 05:54:13;;;;;;;12.40;7.50;;;;;;;13.79;100.00;100291.45;109564;1241;70606;-79
2023/10/15 05:56:42;;;;;;;9.60;6.70;;;;;;;13.93;100.00;100289.81;109540;1245;62815;-84
2023/10/15 05:59:11;;;;;;;14.70;9.90;;;;;;;14.06;100.00;100286.70;109517;1245;57000;-85
2023/10/15 06:01:40;;;;;;;11.50;6.90;;;;;;;14.21;100.00;100277.59;109552;1241;60295;-83
2023/10/15 06:04:08;;;;;;;10.00;6.60;;;;;;;14.27;100.00;100282.26;109507;1244;73017;-84
2023/10/15 06:06:37;;;;;;;10.20;6.80;;;;;;;14.37;100.00;100282.02;109443;1245;61891;-82
2023/10/15 06:09:11;;;;;;;12.50;6.70;;;;;;;14.46;100.00;100282.85;109557;1245;59936;-82
2023/10/15 06:11:40;;;;;;;10.30;6.40;;;;;;;14.57;100.00;100286.20;109353;1241;73817;-81
2023/10/15 06:14:09;;;;;;;13.30;6.50;;;;;;;14.68;100.00;100286.10;109386;1245;62200;-81
2023/10/15 06:16:37;;;;;;;8.60;6.40;;;;;;;14.75;100.00;100286.83;109540;1244;60739;-81
2023/10/15 06:19:09;;;;;;;15.20;6.40;;;;;;;14.86;100.00;100288.17;109429;1242;75162;-76
2023/10/15 06:21:37;;;;;;;13.00;6.50;;;;;;;14.96;100.00;100288.42;109535;1245;72149;-81
2023/10/15 06:24:09;;;;;;;10.60;6.50;;;;;;;15.06;100.00;100288.86;109550;1245;59556;-78
2023/10/15 06:26:38;;;;;;;12.30;7.80;;;;;;;15.21;100.00;100288.44;109443;1241;73736;-80
2023/10/15 06:29:09;;;;;;;12.70;6.90;;;;;;;15.30;100.00;100286.14;109337;1247;57272;-75
2023/10/15 06:31:38;;;;;;;7.70;6.10;;;;;;;15.36;100.00;100283.10;109485;1246;57759;-80
2023/10/15 06:34:07;;;;;;;16.10;6.40;;;;;;;15.41;100.00;100283.29;109587;1246;63048;-81
2023/10/15 06:36:36;;;;;;;12.90;6.10;;;;;;;15.46;100.00;100287.14;109457;1245;60692;-81
2023/10/15 06:39:05;;;;;;;13.20;6.30;;;;;;;15.59;100.00;100285.51;109564;1241;69253;-80
2023/10/15 06:41:36;;;;;;;14.30;6.20;;;;;;;15.72;100.00;100286.20;109350;1248;63667;-81
2023/10/15 06:44:08;;;;;;;7.10;5.40;;;;;;;15.84;100.00;100278.61;109317;1246;58025;-80
2023/10/15 06:46:38;;;;;;;12.20;6.40;;;;;;;15.89;100.00;100271.50;109613;1241;57590;-81
2023/10/15 06:49:08;;;;;;;12.70;6.00;;;;;;;15.96;100.00;100271.86;109695;1244;72458;-81
2023/10/15 06:51:39;;;;;;;13.20;6.40;;;;;;;16.02;100.00;100273.98;109618;1241;72657;-81
2023/10/15 06:54:11;;;;;;;11.30;6.50;;;;;;;16.03;100.00;100275.46;109737;1241;61586;-81
2023/10/15 06:56:40;;;;;;;11.20;7.00;;;;;;;16.11;100.00;100278.73;109722;1241;63630;-82
2023/10/15 06:59:11;;;;;;;9.50;6.40;;;;;;;16.17;100.00;100274.77;109512;1245;57152;-82
2023/10/15 07:01:39;;;;;;;12.20;6.90;;;;;;;16.27;100.00;100268.30;109539;1245;61067;-81
2023/10/15 07:04:11;;;;;;;12.90;6.90;;;;;;;16.39;100.00;100261.59;109666;1244;64275;-82
2023/10/15 07:06:40;;;;;;;9.70;6.90;;;;;;;16.49;100.00;100257.02;109514;1243;60770;-82
2023/10/15 07:09:09;;;;;;;13.40;7.10;;;;;;;16.58;100.00;100255.91;109671;1243;60080;-81
2023/10/15 07:11:38;;;;;;;10.30;6.80;;;;;;;16.68;100.00;100255.52;109658;1243;63373;-81
2023/10/15 07:14:08;;;;;;;12.50;6.70;;;;;;;16.76;100.00;100260.36;109708;1244;62021;-81
2023/10/15 07:16:40;;;;;;;10.20;6.90;;;;;;;16.80;100.00;100258.15;109730;1243;57583;-82
2023/10/15 07:19:09;;;;;;;14.30;7.60;;;;;;;16.98;100.00;100263.89;109482;1244;74059;-79
2023/10/15 07:21:38;;;;;;;11.40;6.50;;;;;;;17.08;100.00;100262.25;109543;1242;62176;-79
2023/10/15 07:24:11;;;;;;;9.90;6.60;;;;;;;17.09;100.00;100260.16;109499;1244;59881;-79
2023/10/15 07:26:40;;;;;;;15.00;7.40;;;;;;;17.23;100.00;100256.81;109614;1244;73821;-80
2023/10/15 07:29:09;;;;;;;11.90;6.60;;;;;;;17.32;100.00;100252.79;109590;1244;57618;-81
2023/10/15 07:31:38;;;;;;;12.00;7.10;;;;;;;17.42;100.00;100244.46;109615;1244;57625;-81
2023/10/15 07:34:08;;;;;;;9.90;5.70;;;;;;;17.57;100.00;100244.09;109645;1243;71791;-79
2023/10/15 07:36:37;;;;;;;51.70;29.40;;;;;;;17.66;100.00;100248.70;109629;1244;71864;-79
2023/10/15 07:39:06;;;;;;;17.40;10.20;;;;;;;17.71;100.00;100241.47;109679;1244;69991;-80
2023/10/15 07:41:35;;;;;;;12.70;6.60;;;;;;;17.80;100.00;100236.64;109595;1243;63938;-80
2023/10/15 07:44:04;;;;;;;14.10;5.90;;;;;;;17.83;100.00;100238.45;109584;1245;62184;-80
2023/10/15 07:46:34;;;;;;;12.10;6.10;;;;;;;18.00;100.00;100243.48;109433;1244;57669;-80
2023/10/15 07:49:03;;;;;;;11.20;5.30;;;;;;;18.14;100.00;100244.02;109347;1245;73472;-80
2023/10/15 07:51:32;;;;;;;12.80;5.80;;;;;;;18.23;100.00;100236.40;109298;1242;72568;-80
2023/10/15 07:54:03;;;;;;;11.60;6.40;;;;;;;18.35;100.00;100232.64;109455;1244;70056;-80
2023/10/15 07:56:34;;;;;;;11.30;5.00;;;;;;;18.50;100.00;100227.97;109444;1244;63070;-79
2023/10/15 07:59:08;;;;;;;10.80;5.20;;;;;;;18.58;100.00;100230.57;109468;1245;57291;-80
2023/10/15 08:01:47;;;;;;;10.40;4.60;;;;;;;18.68;100.00;100233.97;109345;1244;57242;-79
2023/10/15 08:04:16;;;;;;;10.40;4.70;;;;;;;18.77;100.00;100231.91;109476;1243;63503;-80
2023/10/15 08:06:47;;;;;;;12.70;4.60;;;;;;;18.86;100.00;100231.49;109466;1244;72140;-79
2023/10/15 08:09:17;;;;;;;10.10;4.20;;;;;;;19.02;100.00;100227.83;109460;1245;69966;-81
2023/10/15 08:11:51;;;;;;;9.00;4.20;;;;;;;19.17;100.00;100232.52;109430;1244;73997;-81
2023/10/15 08:14:23;;;;;;;13.10;4.60;;;;;;;19.31;100.00;100233.31;109592;1245;61022;-79
2023/10/15 08:16:52;;;;;;;7.50;4.20;;;;;;;19.17;100.00;100227.67;109496;1244;60537;-80
2023/10/15 08:19:21;;;;;;;9.00;4.50;;;;;;;19.32;100.00;100241.64;109360;1244;72456;-80
2023/10/15 08:21:50;;;;;;;7.90;3.70;;;;;;;19.41;100.00;100244.85;109354;1243;70351;-81
2023/10/15 08:24:19;;;;;;;7.10;4.50;;;;;;;19.40;100.00;100243.38;109322;1244;71005;-81
2023/10/15 08:26:51;;;;;;;9.10;4.20;;;;;;;19.45;100.00;100241.90;109298;1244;62811;-79
2023/10/15 08:29:21;;;;;;;8.90;3.80;;;;;;;19.54;100.00;100248.40;109284;1247;57625;-80
2023/10/15 08:31:51;;;;;;;11.70;4.60;;;;;;;19.50;100.00;100242.21;109332;1246;57204;-80
2023/10/15 08:34:23;;;;;;;9.90;4.50;;;;;;;19.67;100.00;100237.74;109373;1244;73385;-80
2023/10/15 08:36:53;;;;;;;8.30;4.80;;;;;;;19.74;100.00;100236.22;109350;1245;62150;-80
2023/10/15 08:39:23;;;;;;;11.20;4.50;;;;;;;19.81;100.00;100240.13;109454;1244;69657;-79
2023/10/15 08:41:54;;;;;;;7.40;4.30;;;;;;;19.93;100.00;100241.42;109330;1244;62909;-79
2023/10/15 08:44:24;;;;;;;10.00;4.70;;;;;;;19.96;100.00;100243.86;109421;1245;57708;-78
2023/10/15 08:47:00;;;;;;;;;;;;;;;19.90;100.00;100245.24;109471;1244;61205;-78
2023/10/15 08:49:37;;;;;;;10.10;4.30;;;;;;;19.82;100.00;100249.34;109494;1244;73270;-79
2023/10/15 08:52:07;;;;;;;12.10;4.60;;;;;;;19.92;100.00;100246.18;109390;1243;70844;-79
2023/10/15 08:54:38;;;;;;;8.00;4.80;;;;;;;20.05;100.00;100249.30;109465;1243;60043;-80
2023/10/15 08:57:09;;;;;;;9.00;5.00;;;;;;;20.16;100.00;100247.96;109456;1244;64048;-79
2023/10/15 08:59:40;;;;;;;10.30;4.60;;;;;;;20.21;100.00;100255.79;109454;1244;57598;-79
2023/10/15 09:02:09;;;;;;;9.30;4.80;;;;;;;20.18;100.00;100259.02;109311;1244;60700;-79
2023/10/15 09:04:38;;;;;;;9.00;4.80;;;;;;;20.15;100.00;100254.67;109318;1243;64488;-83
2023/10/15 09:07:07;;;;;;;8.80;3.80;;;;;;;20.20;100.00;100253.13;109197;1244;60727;-80
2023/10/15 09:09:36;;;;;;;9.50;5.10;;;;;;;20.24;100.00;100254.04;109379;1243;59180;-81
2023/10/15 09:12:12;;;;;;;12.90;5.30;;;;;;;20.31;100.00;100248.32;109415;1243;62373;-80
2023/10/15 09:14:44;;;;;;;10.40;5.20;;;;;;;20.42;100.00;100246.59;109392;1244;61010;-82
2023/10/15 09:17:17;;;;;;;8.70;5.10;;;;;;;20.49;100.00;100247.14;108920;1244;334838;-82
2023/10/15 09:19:46;;;;;;;21.40;6.30;;;;;;;20.48;100.00;100249.55;109284;1243;62464;-81
2023/10/15 09:22:15;;;;;;;11.00;5.70;;;;;;;20.56;100.00;100243.66;109438;1244;61446;-81
2023/10/15 09:24:46;;;;;;;9.60;5.50;;;;;;;20.61;100.00;100244.17;109314;1243;59230;-81
2023/10/15 09:27:15;;;;;;;12.40;6.00;;;;;;;20.80;100.00;100236.17;109294;1244;74210;-81
2023/10/15 09:29:43;;;;;;;13.20;5.80;;;;;;;20.85;100.00;100235.45;109449;1245;60817;-83
2023/10/15 09:32:12;;;;;;;8.30;4.90;;;;;;;20.83;100.00;100239.15;109488;1243;57727;-81
2023/10/15 09:34:42;;;;;;;12.20;5.40;;;;;;;20.80;100.00;100236.73;109512;1241;62731;-80
2023/10/15 09:37:14;;;;;;;12.80;4.90;;;;;;;20.84;100.00;100239.84;109456;1241;70801;-80
2023/10/15 09:39:43;;;;;;;13.50;4.70;;;;;;;20.86;99.93;100234.52;109462;1241;69715;-79
2023/10/15 09:42:12;;;;;;;9.20;5.40;;;;;;;20.86;99.60;100233.75;109561;1241;62634;-84
2023/10/15 09:44:41;;;;;;;15.10;5.80;;;;;;;20.90;99.30;100234.15;109595;1244;57211;-83
2023/10/15 09:47:10;;;;;;;14.80;5.00;;;;;;;20.90;98.95;100232.73;109691;1242;57209;-77
2023/10/15 09:49:41;;;;;;;8.20;4.70;;;;;;;21.03;98.95;100231.90;109714;1241;73908;-79
2023/10/15 09:52:11;;;;;;;9.70;4.20;;;;;;;21.02;98.16;100237.52;109695;1241;62065;-79
2023/10/15 09:54:42;;;;;;;13.00;5.80;;;;;;;20.98;98.68;100233.55;109650;1241;59893;-79
2023/10/15 09:57:14;;;;;;;11.20;5.60;;;;;;;20.97;99.25;100225.76;109640;1241;64180;-80
2023/10/15 09:59:49;;;;;;;8.70;4.50;;;;;;;21.12;98.77;100223.77;109736;1241;57701;-78
2023/10/15 10:02:25;;;;;;;9.30;4.90;;;;;;;21.25;97.54;100226.17;109792;1241;60022;-79
2023/10/15 10:05:44;;;;;;;12.20;4.80;;;;;;;21.24;97.01;100226.08;109702;1241;73303;-80
2023/10/15 10:08:46;;;;;;;11.40;4.90;;;;;;;21.34;96.58;100230.86;109686;1241;71677;-78
2023/10/15 10:11:51;;;;;;;12.10;5.40;;;;;;;21.42;97.11;100221.52;109604;1241;71015;-77
2023/10/15 10:15:12;;;;;;;20.90;5.80;;;;;;;21.73;96.28;100214.23;109742;1241;72437;-80
2023/10/15 10:17:42;;;;;;;9.10;4.80;;;;;;;22.07;91.39;100210.86;109665;1244;57226;-77
2023/10/15 10:20:13;;;;;;;12.20;5.40;;;;;;;22.51;91.12;100209.48;109539;1245;57751;-78
2023/10/15 10:22:57;;;;;;;16.20;5.20;;;;;;;22.69;88.39;100214.73;109724;1241;73464;-78
2023/10/15 10:25:31;;;;;;;9.00;5.10;;;;;;;22.53;87.49;100210.43;109649;1241;73638;-79
2023/10/15 10:28:13;;;;;;;12.40;5.20;;;;;;;22.57;88.08;100209.10;109754;1241;60197;-78
2023/10/15 10:31:07;;;;;;;10.00;4.40;;;;;;;22.57;88.47;100208.36;109518;1245;62300;-76
2023/10/15 10:33:49;;;;;;;11.50;5.70;;;;;;;22.32;88.80;100204.81;109643;1241;60182;-77
2023/10/15 10:36:30;;;;;;;9.90;5.00;;;;;;;22.34;88.37;100205.52;109521;1247;57732;-83
2023/10/15 10:39:22;;;;;;;10.70;5.70;;;;;;;22.22;88.33;100197.98;109696;1241;72105;-78
2023/10/15 10:41:59;;;;;;;9.30;5.80;;;;;;;22.24;88.95;100196.34;109729;1241;72085;-80
2023/10/15 10:44:28;;;;;;;11.70;5.60;;;;;;;22.17;89.57;100197.95;109532;1241;70643;-77
2023/10/15 10:47:33;;;;;;;10.50;5.90;;;;;;;22.12;90.20;100191.88;109691;1241;72175;-78
2023/10/15 10:50:04;;;;;;;12.10;5.50;;;;;;;22.21;90.33;100194.73;109727;1244;60788;-81
2023/10/15 10:52:37;;;;;;;10.70;5.60;;;;;;;21.99;91.05;100195.64;109737;1241;61934;-78
2023/10/15 10:55:34;;;;;;;15.40;6.50;;;;;;;21.97;91.97;100201.60;109867;1241;73140;-81
2023/10/15 10:58:26;;;;;;;15.80;6.40;;;;;;;21.96;92.56;100198.27;109977;1241;71821;-80
2023/10/15 11:00:56;;;;;;;13.00;7.30;;;;;;;21.88;92.48;100202.20;109660;1248;60464;-80
2023/10/15 11:03:26;;;;;;;10.60;6.50;;;;;;;21.77;92.81;100202.36;109753;1241;64077;-79
2023/10/15 11:05:56;;;;;;;13.00;6.50;;;;;;;21.66;93.42;100206.23;109640;1244;57164;-83
2023/10/15 11:08:25;;;;;;;14.70;7.50;;;;;;;21.48;94.37;100205.40;109758;1241;60192;-79
2023/10/15 11:10:59;;;;;;;12.00;7.70;;;;;;;21.39;95.43;100201.17;109471;1241;73382;-79
2023/10/15 11:13:40;;;;;;;12.20;7.40;;;;;;;21.30;96.74;100202.98;109568;1241;63945;-81
2023/10/15 11:16:11;;;;;;;11.30;7.40;;;;;;;21.32;97.07;100199.73;109713;1241;60288;-79
2023/10/15 11:18:45;;;;;;;13.20;8.90;;;;;;;21.18;98.39;100199.23;109692;1241;62742;-79
2023/10/15 11:21:17;;;;;;;16.80;9.40;;;;;;;20.98;99.88;100198.19;109651;1242;60218;-79
2023/10/15 11:23:48;;;;;;;11.20;7.70;;;;;;;21.02;100.00;100201.05;109784;1241;60868;-80
2023/10/15 11:26:18;;;;;;;14.20;9.00;;;;;;;20.95;100.00;100195.84;109726;1242;63482;-79
2023/10/15 11:28:47;;;;;;;17.70;9.20;;;;;;;20.97;100.00;100194.39;109718;1244;70974;-79
2023/10/15 11:31:16;;;;;;;17.40;9.70;;;;;;;20.86;100.00;100199.67;109736;1241;70722;-78
2023/10/15 11:33:47;;;;;;;15.10;9.20;;;;;;;20.85;100.00;100199.27;109661;1241;74190;-78
2023/10/15 11:36:17;;;;;;;15.40;9.50;;;;;;;20.79;100.00;100199.29;109646;1244;57693;-78
2023/10/15 11:38:45;;;;;;;13.80;8.90;;;;;;;20.72;100.00;100207.75;109663;1244;61241;-81